createdAt,value
2019-02-07T00:01:47.056Z,20.83
2019-02-07T00:04:16.642Z,19.50
2019-02-07T00:06:46.131Z,22.17
2019-02-07T00:09:16.140Z,19.83
2019-02-07T00:11:46.118Z,17.70
2019-02-07T00:14:15.905Z,17.97
2019-02-07T00:16:45.671Z,18.23
2019-02-07T00:19:15.283Z,17.03
2019-02-07T00:21:45.004Z,17.53
2019-02-07T00:24:14.691Z,15.77
2019-02-07T00:26:44.378Z,16.90
2019-02-07T00:29:14.234Z,31.23
2019-02-07T00:31:43.866Z,28.60
2019-02-07T00:34:13.520Z,40.70
2019-02-07T00:36:43.213Z,34.90
2019-02-07T00:39:13.274Z,34.43
2019-02-07T00:41:43.120Z,31.10
2019-02-07T00:44:12.867Z,27.80
2019-02-07T00:46:42.382Z,29.50
2019-02-07T00:49:12.119Z,27.20
2019-02-07T00:51:42.013Z,26.77
2019-02-07T00:54:11.411Z,25.77
2019-02-07T00:56:40.807Z,22.80
2019-02-07T00:59:10.566Z,20.43
2019-02-07T01:01:40.225Z,20.27
2019-02-07T01:04:10.182Z,19.07
2019-02-07T01:06:40.148Z,21.43
2019-02-07T01:09:10.911Z,24.53
2019-02-07T01:11:40.678Z,20.97
2019-02-07T01:14:10.257Z,19.33
2019-02-07T01:16:39.735Z,20.77
2019-02-07T01:19:09.926Z,19.87
2019-02-07T01:21:39.644Z,19.23
2019-02-07T01:24:09.498Z,19.53
2019-02-07T01:26:39.374Z,19.20
2019-02-07T01:29:09.160Z,19.47
2019-02-07T01:31:38.616Z,20.70
2019-02-07T01:34:08.229Z,22.17
2019-02-07T01:36:37.817Z,20.47
2019-02-07T01:39:09.248Z,17.27
2019-02-07T01:41:38.944Z,18.70
2019-02-07T01:44:08.842Z,17.33
2019-02-07T01:46:38.569Z,17.20
2019-02-07T01:49:08.294Z,16.27
2019-02-07T01:51:38.007Z,17.87
2019-02-07T01:54:07.408Z,15.27
2019-02-07T01:56:36.846Z,14.97
2019-02-07T01:59:06.809Z,15.27
2019-02-07T02:01:36.615Z,18.27
2019-02-07T02:04:06.235Z,19.97
2019-02-07T02:06:36.158Z,19.13
2019-02-07T02:09:08.084Z,20.03
2019-02-07T02:11:37.906Z,21.60
2019-02-07T02:14:08.304Z,21.30
2019-02-07T02:16:37.955Z,21.47
2019-02-07T02:19:07.696Z,21.07
2019-02-07T02:21:37.229Z,21.40
2019-02-07T02:24:07.077Z,17.90
2019-02-07T02:26:36.842Z,18.37
2019-02-07T02:29:06.451Z,20.77
2019-02-07T02:31:36.568Z,20.87
2019-02-07T02:34:06.465Z,21.63
2019-02-07T02:36:36.047Z,18.73
2019-02-07T02:39:09.496Z,20.07
2019-02-07T02:41:39.355Z,20.23
2019-02-07T02:44:09.242Z,18.57
2019-02-07T02:46:38.923Z,19.30
2019-02-07T02:49:09.103Z,19.07
2019-02-07T02:51:38.702Z,20.63
2019-02-07T02:54:09.754Z,24.63
2019-02-07T02:56:39.448Z,22.47
2019-02-07T02:59:09.082Z,23.53
2019-02-07T03:01:56.530Z,26.43
2019-02-07T03:04:45.325Z,26.13
2019-02-07T03:07:42.974Z,26.73
2019-02-07T03:10:34.826Z,33.47
2019-02-07T03:13:16.992Z,27.60
2019-02-07T03:16:14.829Z,51.43
2019-02-07T03:18:57.759Z,27.10
2019-02-07T03:21:43.656Z,27.90
2019-02-07T03:24:35.272Z,26.10
2019-02-07T03:27:26.784Z,26.03
2019-02-07T03:30:24.628Z,25.70
2019-02-07T03:33:07.938Z,24.60
2019-02-07T03:35:55.420Z,26.77
2019-02-07T03:38:47.091Z,24.67
2019-02-07T03:41:38.580Z,20.73
2019-02-07T03:44:21.127Z,20.27
2019-02-07T03:47:09.855Z,21.67
2019-02-07T03:49:57.133Z,22.13
2019-02-07T03:52:45.453Z,21.40
2019-02-07T03:55:37.337Z,18.13
2019-02-07T03:58:28.812Z,17.30
2019-02-07T04:01:18.061Z,17.37
2019-02-07T04:04:09.616Z,16.67
2019-02-07T04:06:57.409Z,16.10
2019-02-07T04:09:46.467Z,16.60
2019-02-07T04:12:47.062Z,18.40
2019-02-07T04:15:34.381Z,16.07
2019-02-07T04:18:26.026Z,15.60
2019-02-07T04:21:13.909Z,14.57
2019-02-07T04:24:09.163Z,14.07
2019-02-07T04:27:04.147Z,14.33
2019-02-07T04:29:53.518Z,18.03
2019-02-07T04:32:41.991Z,16.20
2019-02-07T04:35:39.964Z,16.30
2019-02-07T04:38:47.287Z,19.17
2019-02-07T04:41:44.912Z,18.97
2019-02-07T04:44:32.745Z,18.87
2019-02-07T04:47:20.164Z,21.40
2019-02-07T04:50:07.708Z,20.33
2019-02-07T04:52:54.209Z,17.87
2019-02-07T04:55:39.343Z,16.90
2019-02-07T04:58:30.569Z,13.77
2019-02-07T05:01:07.637Z,12.20
2019-02-07T05:04:02.410Z,14.37
2019-02-07T05:06:49.159Z,14.07
2019-02-07T05:09:36.526Z,21.57
2019-02-07T05:12:18.450Z,16.60
2019-02-07T05:15:11.259Z,17.30
2019-02-07T05:18:06.315Z,19.37
2019-02-07T05:20:55.090Z,20.87
2019-02-07T05:23:43.657Z,22.53
2019-02-07T05:26:32.710Z,78.97
2019-02-07T05:29:28.920Z,52.80
2019-02-07T05:32:16.445Z,27.27
2019-02-07T05:34:58.837Z,20.47
2019-02-07T05:37:50.090Z,20.70
2019-02-07T05:40:29.826Z,21.87
2019-02-07T05:43:21.544Z,19.40
2019-02-07T05:46:16.123Z,17.90
2019-02-07T05:49:22.774Z,31.70
2019-02-07T05:52:26.864Z,32.00
2019-02-07T05:55:14.229Z,30.67
2019-02-07T05:58:01.294Z,14.07
2019-02-07T06:00:53.310Z,14.33
2019-02-07T06:03:39.692Z,10.53
2019-02-07T06:06:25.658Z,10.03
2019-02-07T06:09:13.642Z,9.33
2019-02-07T06:12:11.523Z,15.40
2019-02-07T06:15:15.363Z,18.27
2019-02-07T06:18:03.982Z,14.80
2019-02-07T06:20:43.089Z,12.23
2019-02-07T06:23:40.635Z,14.50
2019-02-07T06:26:41.944Z,14.30
2019-02-07T06:29:29.662Z,10.03
2019-02-07T06:32:16.161Z,12.70
2019-02-07T06:35:03.733Z,16.13
2019-02-07T06:37:57.929Z,19.77
2019-02-07T06:40:41.084Z,20.53
2019-02-07T06:43:37.409Z,14.40
2019-02-07T06:46:29.009Z,13.20
2019-02-07T06:49:20.630Z,16.90
2019-02-07T06:52:02.222Z,9.33
2019-02-07T06:55:06.862Z,10.53
2019-02-07T06:57:54.367Z,12.47
2019-02-07T07:00:45.785Z,10.27
2019-02-07T07:03:33.368Z,8.90
2019-02-07T07:06:20.755Z,9.30
2019-02-07T07:09:05.517Z,9.20
2019-02-07T07:11:58.034Z,15.07
2019-02-07T07:14:45.481Z,16.67
2019-02-07T07:17:43.105Z,18.43
2019-02-07T07:20:31.284Z,19.10
2019-02-07T07:23:25.877Z,16.40
2019-02-07T07:26:32.746Z,17.97
2019-02-07T07:29:19.876Z,16.07
2019-02-07T07:32:07.206Z,21.50
2019-02-07T07:35:04.568Z,22.30
2019-02-07T07:37:44.914Z,17.47
2019-02-07T07:40:32.288Z,19.17
2019-02-07T07:43:20.614Z,17.17
2019-02-07T07:46:15.088Z,16.70
2019-02-07T07:48:57.268Z,16.23
2019-02-07T07:52:01.425Z,24.30
2019-02-07T07:54:40.641Z,17.93
2019-02-07T07:57:35.105Z,19.93
2019-02-07T08:00:19.011Z,26.67
2019-02-07T08:03:09.724Z,22.67
2019-02-07T08:06:13.156Z,21.10
2019-02-07T08:09:07.861Z,18.90
2019-02-07T08:11:56.843Z,19.23
2019-02-07T08:14:48.750Z,21.60
2019-02-07T08:17:49.332Z,17.97
2019-02-07T08:20:38.021Z,25.30
2019-02-07T08:23:30.970Z,20.30
2019-02-07T08:26:25.787Z,19.33
2019-02-07T08:29:20.355Z,24.60
2019-02-07T08:32:17.218Z,14.63
2019-02-07T08:35:13.789Z,14.43
2019-02-07T08:37:58.027Z,33.97
2019-02-07T08:40:41.823Z,24.73
2019-02-07T08:43:41.237Z,25.40
2019-02-07T08:46:28.773Z,37.17
2019-02-07T08:49:23.809Z,24.03
2019-02-07T08:52:18.517Z,29.90
2019-02-07T08:55:22.489Z,65.00
2019-02-07T08:58:09.750Z,48.20
2019-02-07T09:00:57.011Z,45.43
2019-02-07T09:04:03.524Z,17.67
2019-02-07T09:07:07.153Z,21.60
2019-02-07T09:10:07.971Z,20.73
2019-02-07T09:12:55.483Z,28.43
2019-02-07T09:15:30.736Z,30.53
2019-02-07T09:18:18.379Z,28.20
2019-02-07T09:21:09.888Z,21.47
2019-02-07T09:23:57.660Z,22.77
2019-02-07T09:26:44.979Z,22.33
2019-02-07T09:29:26.279Z,18.17
2019-02-07T09:32:09.305Z,18.60
2019-02-07T09:34:56.129Z,15.27
2019-02-07T09:37:35.284Z,16.70
2019-02-07T09:40:26.023Z,22.07
2019-02-07T09:43:25.462Z,18.13
2019-02-07T09:46:29.000Z,13.23
2019-02-07T09:49:26.126Z,15.97
2019-02-07T09:52:17.537Z,14.63
2019-02-07T09:55:08.905Z,16.80
2019-02-07T09:57:44.878Z,15.77
2019-02-07T10:00:34.397Z,15.43
2019-02-07T10:03:22.764Z,16.80
2019-02-07T10:06:17.398Z,16.10
2019-02-07T10:09:05.982Z,15.73
2019-02-07T10:11:53.090Z,17.60
2019-02-07T10:14:51.395Z,17.07
2019-02-07T10:17:48.689Z,16.17
2019-02-07T10:20:27.836Z,14.63
2019-02-07T10:23:14.792Z,23.30
2019-02-07T10:26:09.050Z,13.93
2019-02-07T10:28:56.243Z,21.00
2019-02-07T10:31:50.818Z,18.77
2019-02-07T10:34:41.866Z,16.77
2019-02-07T10:37:25.826Z,28.63
2019-02-07T10:40:23.952Z,18.70
2019-02-07T10:43:30.736Z,28.70
2019-02-07T10:46:18.409Z,29.70
2019-02-07T10:49:19.436Z,25.23
2019-02-07T10:52:11.382Z,15.97
2019-02-07T10:54:58.564Z,18.97
2019-02-07T10:57:47.265Z,29.23
2019-02-07T11:00:37.743Z,21.17
2019-02-07T11:03:28.935Z,40.93
2019-02-07T11:06:16.167Z,19.57
2019-02-07T11:09:02.286Z,20.10
2019-02-07T11:11:49.360Z,23.37
2019-02-07T11:14:38.111Z,22.07
2019-02-07T11:17:25.242Z,22.83
2019-02-07T11:20:16.553Z,22.77
2019-02-07T11:23:11.497Z,23.67
2019-02-07T11:26:00.236Z,14.57
2019-02-07T11:28:54.397Z,17.00
2019-02-07T11:31:41.099Z,20.00
2019-02-07T11:34:22.073Z,18.90
2019-02-07T11:37:10.780Z,20.63
2019-02-07T11:39:57.883Z,19.83
2019-02-07T11:42:34.115Z,18.13
2019-02-07T11:45:11.494Z,17.03
2019-02-07T11:47:58.546Z,19.03
2019-02-07T11:50:56.774Z,18.37
2019-02-07T11:53:48.352Z,18.83
2019-02-07T11:56:42.652Z,23.33
2019-02-07T11:59:40.451Z,19.60
2019-02-07T12:02:25.627Z,17.93
2019-02-07T12:05:20.124Z,21.13
2019-02-07T12:08:15.318Z,21.53
2019-02-07T12:10:58.697Z,21.50
2019-02-07T12:13:50.275Z,21.93
2019-02-07T12:16:35.176Z,20.67
2019-02-07T12:19:24.765Z,21.57
2019-02-07T12:22:06.895Z,23.50
2019-02-07T12:24:54.153Z,44.83
2019-02-07T12:27:44.263Z,28.47
2019-02-07T12:30:44.185Z,23.60
2019-02-07T12:33:51.246Z,19.17
2019-02-07T12:36:38.453Z,16.73
2019-02-07T12:39:27.383Z,17.23
2019-02-07T12:42:10.929Z,21.43
2019-02-07T12:45:05.896Z,23.30
2019-02-07T12:47:47.530Z,20.77
2019-02-07T12:50:35.343Z,17.30
2019-02-07T12:53:13.879Z,21.70
2019-02-07T12:56:02.675Z,19.57
2019-02-07T12:58:49.814Z,17.20
2019-02-07T13:01:38.357Z,15.40
2019-02-07T13:04:28.503Z,24.47
2019-02-07T13:07:29.004Z,16.03
2019-02-07T13:10:20.564Z,20.97
2019-02-07T13:13:08.917Z,17.90
2019-02-07T13:15:57.407Z,19.20
2019-02-07T13:18:45.835Z,22.10
2019-02-07T13:21:40.570Z,25.50
2019-02-07T13:24:29.056Z,21.80
2019-02-07T13:27:20.635Z,31.60
2019-02-07T13:30:19.387Z,20.47
2019-02-07T13:33:23.174Z,19.13
2019-02-07T13:36:11.872Z,25.40
2019-02-07T13:38:59.342Z,17.80
2019-02-07T13:41:53.811Z,20.37
2019-02-07T13:44:33.443Z,19.77
2019-02-07T13:47:21.088Z,17.60
2019-02-07T13:50:16.496Z,18.80
2019-02-07T13:53:01.056Z,22.10
2019-02-07T13:55:48.663Z,32.07
2019-02-07T13:58:30.583Z,38.87
2019-02-07T14:01:22.437Z,39.80
2019-02-07T14:04:14.028Z,33.80
2019-02-07T14:07:05.299Z,23.47
2019-02-07T14:09:46.335Z,37.23
2019-02-07T14:12:43.885Z,46.17
2019-02-07T14:15:39.081Z,30.33
2019-02-07T14:18:27.544Z,34.53
2019-02-07T14:21:15.185Z,35.77
2019-02-07T14:24:06.603Z,27.63
2019-02-07T14:26:50.934Z,111.17
2019-02-07T14:29:34.886Z,191.47
2019-02-07T14:32:26.478Z,99.20
2019-02-07T14:35:15.218Z,42.07
2019-02-07T14:38:03.909Z,86.23
2019-02-07T14:40:58.893Z,85.27
2019-02-07T14:43:53.206Z,85.57
2019-02-07T14:46:37.044Z,75.80
2019-02-07T14:49:06.686Z,97.17
2019-02-07T14:51:36.401Z,66.03
2019-02-07T14:54:06.765Z,44.50
2019-02-07T14:56:36.408Z,41.97
2019-02-07T14:59:07.098Z,44.57
2019-02-07T15:01:36.978Z,46.33
2019-02-07T15:04:07.081Z,63.47
2019-02-07T15:06:37.032Z,51.23
2019-02-07T15:09:14.131Z,48.63
2019-02-07T15:11:44.033Z,74.73
2019-02-07T15:14:13.575Z,42.37
2019-02-07T15:16:43.385Z,35.73
2019-02-07T15:19:13.448Z,82.53
2019-02-07T15:21:43.034Z,79.60
2019-02-07T15:24:12.857Z,82.10
2019-02-07T15:26:42.581Z,41.50
2019-02-07T15:29:12.209Z,96.63
2019-02-07T15:31:42.056Z,59.30
2019-02-07T15:34:12.330Z,37.20
2019-02-07T15:36:43.681Z,29.50
2019-02-07T15:39:16.382Z,80.80
2019-02-07T15:41:46.440Z,76.90
2019-02-07T15:44:15.981Z,68.53
2019-02-07T15:46:47.780Z,81.30
2019-02-07T15:49:17.706Z,73.37
2019-02-07T15:51:48.424Z,91.27
2019-02-07T15:54:18.445Z,119.97
2019-02-07T15:56:49.133Z,100.77
2019-02-07T15:59:37.893Z,87.37
2019-02-07T16:02:15.218Z,84.27
2019-02-07T16:04:46.234Z,70.50
2019-02-07T16:07:16.086Z,68.33
2019-02-07T16:09:46.146Z,37.67
2019-02-07T16:12:18.561Z,51.17
2019-02-07T16:14:49.803Z,120.03
2019-02-07T16:17:19.289Z,122.97
2019-02-07T16:19:48.939Z,119.00
2019-02-07T16:22:18.506Z,132.87
2019-02-07T16:24:48.139Z,130.53
2019-02-07T16:27:18.140Z,127.27
2019-02-07T16:29:47.779Z,164.90
2019-02-07T16:32:17.604Z,224.97
2019-02-07T16:34:47.833Z,217.10
2019-02-07T16:37:18.266Z,125.47
2019-02-07T16:39:50.520Z,108.37
2019-02-07T16:42:20.395Z,106.67
2019-02-07T16:44:49.842Z,180.43
2019-02-07T16:47:19.671Z,151.10
2019-02-07T16:49:49.607Z,169.30
2019-02-07T16:52:18.612Z,101.10
2019-02-07T16:54:48.350Z,86.47
2019-02-07T16:57:18.682Z,60.43
2019-02-07T16:59:49.574Z,42.60
2019-02-07T17:02:19.407Z,34.00
2019-02-07T17:04:50.682Z,42.63
2019-02-07T17:07:20.293Z,52.87
2019-02-07T17:09:51.385Z,58.03
2019-02-07T17:12:21.774Z,61.27
2019-02-07T17:14:51.775Z,78.70
2019-02-07T17:17:21.657Z,72.03
2019-02-07T17:19:51.378Z,58.17
2019-02-07T17:22:21.047Z,62.20
2019-02-07T17:24:51.407Z,179.03
2019-02-07T17:27:21.121Z,65.50
2019-02-07T17:29:53.389Z,68.60
2019-02-07T17:32:22.879Z,60.43
2019-02-07T17:34:52.754Z,64.13
2019-02-07T17:37:22.439Z,123.57
2019-02-07T17:39:52.156Z,77.87
2019-02-07T17:42:21.710Z,85.30
2019-02-07T17:44:51.245Z,76.07
2019-02-07T17:47:20.951Z,76.50
2019-02-07T17:49:50.810Z,63.83
2019-02-07T17:52:20.647Z,83.27
2019-02-07T17:54:50.066Z,77.73
2019-02-07T17:57:19.644Z,82.93
2019-02-07T17:59:49.747Z,68.23
2019-02-07T18:02:20.872Z,50.13
2019-02-07T18:04:50.437Z,49.90
2019-02-07T18:07:20.313Z,48.87
2019-02-07T18:09:50.337Z,52.97
2019-02-07T18:12:19.870Z,50.47
2019-02-07T18:14:49.587Z,64.57
2019-02-07T18:17:19.060Z,66.87
2019-02-07T18:19:48.782Z,72.77
2019-02-07T18:22:19.015Z,53.23
2019-02-07T18:24:49.046Z,42.67
2019-02-07T18:27:18.849Z,41.67
2019-02-07T18:29:48.452Z,47.40
2019-02-07T18:32:18.172Z,50.50
2019-02-07T18:34:48.148Z,61.47
2019-02-07T18:37:18.222Z,67.83
2019-02-07T18:39:47.904Z,45.60
2019-02-07T18:42:17.739Z,47.17
2019-02-07T18:44:47.990Z,42.70
2019-02-07T18:47:17.837Z,44.03
2019-02-07T18:49:47.548Z,35.20
2019-02-07T18:52:17.288Z,32.43
2019-02-07T18:54:46.984Z,38.17
2019-02-07T18:57:16.608Z,32.73
2019-02-07T18:59:46.212Z,32.10
2019-02-07T19:02:16.071Z,25.37
2019-02-07T19:04:45.910Z,20.40
2019-02-07T19:07:15.996Z,33.13
2019-02-07T19:09:46.388Z,61.60
2019-02-07T19:12:16.164Z,59.10
2019-02-07T19:14:45.871Z,48.90
2019-02-07T19:17:15.664Z,41.13
2019-02-07T19:19:45.516Z,31.27
2019-02-07T19:22:16.709Z,28.73
2019-02-07T19:24:46.346Z,34.30
2019-02-07T19:27:16.217Z,61.43
2019-02-07T19:29:46.135Z,62.90
2019-02-07T19:32:15.679Z,44.43
2019-02-07T19:34:45.675Z,44.03
2019-02-07T19:37:15.470Z,45.70
2019-02-07T19:39:45.114Z,49.97
2019-02-07T19:42:14.708Z,37.00
2019-02-07T19:44:44.550Z,37.93
2019-02-07T19:47:15.872Z,39.70
2019-02-07T19:49:46.003Z,44.47
2019-02-07T19:52:15.942Z,51.60
2019-02-07T19:54:45.899Z,67.23
2019-02-07T19:57:15.676Z,74.87
2019-02-07T19:59:45.627Z,74.30
2019-02-07T20:02:17.287Z,72.97
2019-02-07T20:04:46.725Z,71.27
2019-02-07T20:07:16.228Z,258.07
2019-02-07T20:09:46.924Z,133.17
2019-02-07T20:12:16.824Z,109.23
2019-02-07T20:14:46.665Z,63.10
2019-02-07T20:17:16.400Z,44.77
2019-02-07T20:19:46.253Z,38.70
2019-02-07T20:22:20.345Z,38.13
2019-02-07T20:24:47.792Z,38.33
2019-02-07T20:27:17.471Z,33.03
2019-02-07T20:29:46.867Z,29.30
2019-02-07T20:32:16.414Z,34.50
2019-02-07T20:34:45.895Z,34.77
2019-02-07T20:37:16.048Z,259.13
2019-02-07T20:39:45.762Z,84.47
2019-02-07T20:42:15.436Z,121.77
2019-02-07T20:44:45.385Z,112.93
2019-02-07T20:47:15.140Z,76.37
2019-02-07T20:49:44.762Z,174.73
2019-02-07T20:52:14.394Z,123.27
2019-02-07T20:54:44.332Z,92.17
2019-02-07T20:57:14.178Z,108.13
2019-02-07T20:59:43.567Z,105.73
2019-02-07T21:02:13.171Z,48.93
2019-02-07T21:04:42.600Z,44.60
2019-02-07T21:07:12.136Z,77.37
2019-02-07T21:09:42.179Z,62.27
2019-02-07T21:12:11.615Z,48.27
2019-02-07T21:14:41.234Z,56.47
2019-02-07T21:17:10.665Z,73.50
2019-02-07T21:19:40.503Z,69.17
2019-02-07T21:22:12.789Z,70.57
2019-02-07T21:24:42.721Z,86.90
2019-02-07T21:27:12.457Z,81.77
2019-02-07T21:29:42.302Z,78.70
2019-02-07T21:32:11.784Z,62.47
2019-02-07T21:34:41.452Z,58.77
2019-02-07T21:37:10.899Z,51.97
2019-02-07T21:39:40.804Z,48.37
2019-02-07T21:42:10.488Z,45.00
2019-02-07T21:44:40.396Z,63.77
2019-02-07T21:47:10.102Z,60.50
2019-02-07T21:49:39.710Z,55.47
2019-02-07T21:52:09.154Z,55.97
2019-02-07T21:54:38.929Z,55.07
2019-02-07T21:57:08.891Z,52.47
2019-02-07T21:59:38.285Z,52.47
2019-02-07T22:02:07.774Z,46.80
2019-02-07T22:04:37.398Z,40.67
2019-02-07T22:07:07.263Z,40.83
2019-02-07T22:09:36.923Z,39.70
2019-02-07T22:12:06.810Z,42.40
2019-02-07T22:14:36.514Z,42.03
2019-02-07T22:17:06.230Z,40.57
2019-02-07T22:19:35.818Z,37.70
2019-02-07T22:22:05.387Z,38.30
2019-02-07T22:24:34.813Z,36.13
2019-02-07T22:27:04.462Z,58.83
2019-02-07T22:29:33.939Z,89.40
2019-02-07T22:32:03.533Z,42.50
2019-02-07T22:34:33.146Z,34.77
2019-02-07T22:37:02.913Z,36.70
2019-02-07T22:39:32.818Z,34.67
2019-02-07T22:42:02.760Z,70.60
2019-02-07T22:44:32.475Z,65.63
2019-02-07T22:47:02.222Z,54.27
2019-02-07T22:49:31.967Z,46.73
2019-02-07T22:52:01.825Z,49.10
2019-02-07T22:54:31.444Z,47.13
2019-02-07T22:57:01.255Z,52.13
2019-02-07T22:59:31.018Z,45.47
2019-02-07T23:02:01.971Z,48.70
2019-02-07T23:04:32.015Z,48.10
2019-02-07T23:07:01.455Z,49.13
2019-02-07T23:09:30.992Z,48.97
2019-02-07T23:12:00.846Z,48.87
2019-02-07T23:14:30.590Z,55.50
2019-02-07T23:17:00.378Z,51.93
2019-02-07T23:19:29.769Z,49.80
2019-02-07T23:21:59.531Z,42.60
2019-02-07T23:24:29.492Z,48.57
2019-02-07T23:26:58.923Z,50.30
2019-02-07T23:29:28.586Z,47.90
2019-02-07T23:31:58.311Z,46.03
2019-02-07T23:34:28.080Z,46.87
2019-02-07T23:36:57.701Z,46.17
2019-02-07T23:39:27.463Z,50.23
2019-02-07T23:41:57.250Z,49.23
2019-02-07T23:44:26.877Z,49.33
2019-02-07T23:46:56.613Z,47.90
2019-02-07T23:49:26.377Z,51.70
2019-02-07T23:51:56.177Z,44.13
2019-02-07T23:54:25.566Z,42.37
2019-02-07T23:56:55.413Z,47.73
2019-02-07T23:59:25.210Z,39.87
